Terminal Aerodrome Forecast
Issued by NWS Boston, MA

Home | Current Version | Previous Version | Text Only | Print | Product List | Glossary On
Versions: 1 2 3 4 5 6 7 8 9 10 11 12 13
000
FTUS41 KBOX 231730
TAFORH
TAF
KORH 231730Z 2318/2418 23014G19KT P6SM SKC
     FM240000 23009KT P6SM SCT080
     FM240400 24008KT 3SM BR BKN003
     FM241100 24005KT 1/2SM FG BKN003=

USA.gov is the U.S. government's official web portal to all federal, state and local government web resources and services.